Rio Vista, Texas
Current Conditions -  °F | °C
As of 8:55 AM on Thursday 30 Oct 2014 (Local Time) from KCPT Reporting Station
Broken Clouds Broken Clouds  
Wind Chill: 59°   Ceiling: 6000
Heat Index: 59°   Visibility: 10mi
Dew Point: 48°   Wind: 5mph
Humidity: 67%   Direction: 160°SSE
Pressure: 30.17"   Gusts: NA
Location:  32.23°N, 97.37°W
Report Text: KCPT 301355Z AUTO 16004KT 10SM BKN060 BKN070 15/09 A3017 RMK AO2
Loading
Personal Weather Stations






























Interactive Weather Map
Tropical Storm Tracking
New forecast layout! Learn more

10-Day Weather Forecast

Advertisements
Track Severe Weather on mobile